createdAt,value
2022-10-19T00:01:42.223Z,51.73
2022-10-19T00:04:44.720Z,50.77
2022-10-19T00:07:46.882Z,51.72
2022-10-19T00:10:49.082Z,50.97
2022-10-19T00:13:51.897Z,49.08
2022-10-19T00:16:55.612Z,45.33
2022-10-19T00:19:57.787Z,48.83
2022-10-19T00:22:59.931Z,50.75
2022-10-19T00:26:02.294Z,49.13
2022-10-19T00:29:04.954Z,49.10
2022-10-19T00:32:07.125Z,46.43
2022-10-19T00:35:09.510Z,47.17
2022-10-19T00:38:11.682Z,47.67
2022-10-19T00:41:15.270Z,44.97
2022-10-19T00:44:17.458Z,51.60
2022-10-19T00:47:23.428Z,43.37
2022-10-19T00:50:25.590Z,45.83
2022-10-19T00:53:29.171Z,45.00
2022-10-19T00:56:32.225Z,48.22
2022-10-19T00:59:34.847Z,44.28
2022-10-19T01:02:37.418Z,47.90
2022-10-19T01:05:39.922Z,47.67
2022-10-19T01:08:42.028Z,52.88
2022-10-19T01:11:59.595Z,46.70
2022-10-19T01:15:27.912Z,50.92
2022-10-19T01:18:45.106Z,48.37
2022-10-19T01:22:02.167Z,43.83
2022-10-19T01:25:29.010Z,43.42
2022-10-19T01:28:54.128Z,41.72
2022-10-19T01:32:33.413Z,42.53
2022-10-19T01:36:05.137Z,40.63
2022-10-19T01:39:21.072Z,43.63
2022-10-19T01:42:30.445Z,43.53
2022-10-19T01:45:52.610Z,42.17
2022-10-19T01:48:58.753Z,40.75
2022-10-19T01:52:05.076Z,41.20
2022-10-19T01:55:08.649Z,42.77
2022-10-19T01:58:15.576Z,43.10
2022-10-19T02:01:20.069Z,44.67
2022-10-19T02:04:25.276Z,46.17
2022-10-19T02:07:27.798Z,45.30
2022-10-19T02:10:31.724Z,45.90
2022-10-19T02:13:34.209Z,46.35
2022-10-19T02:16:41.294Z,44.95
2022-10-19T02:19:43.934Z,42.97
2022-10-19T02:22:46.122Z,44.20
2022-10-19T02:25:48.428Z,49.23
2022-10-19T02:28:51.742Z,49.72
2022-10-19T02:31:54.110Z,50.75
2022-10-19T02:34:56.303Z,46.45
2022-10-19T02:38:00.475Z,47.50
2022-10-19T02:41:23.842Z,47.37
2022-10-19T02:44:48.188Z,46.75
2022-10-19T02:47:58.595Z,44.47
2022-10-19T02:51:01.051Z,45.00
2022-10-19T02:54:05.553Z,50.73
2022-10-19T02:57:20.172Z,50.03
2022-10-19T03:00:22.291Z,48.33
2022-10-19T03:03:24.417Z,50.92
2022-10-19T03:06:26.549Z,47.03
2022-10-19T03:09:28.683Z,43.43
2022-10-19T03:12:30.771Z,41.30
2022-10-19T03:15:33.647Z,44.55
2022-10-19T03:18:36.640Z,43.70
2022-10-19T03:21:39.523Z,42.78
2022-10-19T03:24:42.618Z,41.70
2022-10-19T03:27:45.505Z,40.77
2022-10-19T03:30:48.040Z,41.88
2022-10-19T03:33:50.531Z,42.58
2022-10-19T03:36:52.818Z,41.38
2022-10-19T03:39:54.977Z,43.00
2022-10-19T03:42:57.201Z,39.10
2022-10-19T03:45:59.351Z,41.65
2022-10-19T03:49:02.162Z,40.40
2022-10-19T03:52:07.472Z,39.03
2022-10-19T03:55:10.605Z,37.13
2022-10-19T03:58:12.844Z,42.87
2022-10-19T04:01:24.233Z,41.33
2022-10-19T04:04:26.359Z,41.75
2022-10-19T04:07:28.474Z,63.47
2022-10-19T04:10:31.433Z,47.00
2022-10-19T04:13:34.009Z,43.47
2022-10-19T04:16:36.231Z,42.83
2022-10-19T04:19:38.380Z,42.70
2022-10-19T04:22:40.492Z,42.30
2022-10-19T04:25:42.633Z,40.37
2022-10-19T04:28:44.791Z,41.97
2022-10-19T04:31:49.567Z,44.22
2022-10-19T04:34:51.699Z,43.83
2022-10-19T04:37:53.850Z,41.80
2022-10-19T04:40:56.420Z,41.83
2022-10-19T04:44:00.033Z,40.93
2022-10-19T04:47:02.267Z,40.50
2022-10-19T04:50:04.683Z,37.67
2022-10-19T04:53:07.508Z,43.25
2022-10-19T04:56:19.514Z,43.07
2022-10-19T04:59:21.883Z,44.33
2022-10-19T05:02:24.093Z,42.50
2022-10-19T05:05:26.780Z,44.15
2022-10-19T05:08:28.953Z,47.17
2022-10-19T05:11:31.134Z,47.10
2022-10-19T05:14:35.794Z,47.37
2022-10-19T05:17:40.057Z,49.53
2022-10-19T05:20:42.209Z,42.67
2022-10-19T05:23:44.907Z,45.38
2022-10-19T05:26:47.105Z,41.80
2022-10-19T05:29:50.246Z,43.93
2022-10-19T05:32:53.956Z,37.75
2022-10-19T05:35:56.941Z,38.83
2022-10-19T05:39:04.237Z,38.28
2022-10-19T05:42:07.522Z,44.23
2022-10-19T05:45:10.538Z,45.73
2022-10-19T05:48:12.689Z,44.85
2022-10-19T05:51:18.204Z,49.67
2022-10-19T05:54:22.712Z,60.53
2022-10-19T05:57:27.186Z,62.53
2022-10-19T06:00:29.341Z,66.03
2022-10-19T06:03:31.726Z,65.53
2022-10-19T06:06:34.024Z,57.17
2022-10-19T06:09:36.493Z,41.03
2022-10-19T06:12:38.688Z,32.87
2022-10-19T06:15:40.976Z,30.97
2022-10-19T06:18:43.798Z,30.38
2022-10-19T06:21:46.188Z,23.45
2022-10-19T06:24:48.376Z,21.77
2022-10-19T06:27:50.610Z,16.70
2022-10-19T06:30:52.870Z,19.10
2022-10-19T06:33:55.988Z,16.85
2022-10-19T06:36:58.302Z,16.00
2022-10-19T06:40:04.743Z,12.88
2022-10-19T06:43:08.980Z,12.70
2022-10-19T06:46:20.364Z,12.33
2022-10-19T06:49:22.519Z,12.15
2022-10-19T06:52:24.707Z,13.40
2022-10-19T06:55:26.946Z,12.63
2022-10-19T06:58:30.938Z,15.57
2022-10-19T07:01:33.216Z,15.70
2022-10-19T07:04:35.338Z,16.60
2022-10-19T07:07:37.957Z,10.48
2022-10-19T07:10:40.347Z,9.32
2022-10-19T07:13:42.531Z,9.80
2022-10-19T07:16:44.683Z,8.30
2022-10-19T07:19:46.814Z,7.38
2022-10-19T07:22:49.020Z,10.93
2022-10-19T07:25:52.838Z,6.65
2022-10-19T07:28:56.894Z,6.67
2022-10-19T07:31:58.988Z,5.70
2022-10-19T07:35:01.165Z,5.65
2022-10-19T07:38:07.587Z,7.53
2022-10-19T07:41:12.873Z,5.50
2022-10-19T07:44:15.898Z,5.57
2022-10-19T07:47:18.239Z,6.00
2022-10-19T07:50:20.504Z,5.38
2022-10-19T07:53:23.189Z,5.22
2022-10-19T07:56:28.062Z,5.55
2022-10-19T07:59:34.261Z,5.10
2022-10-19T08:02:54.696Z,5.30
2022-10-19T08:06:06.786Z,4.97
2022-10-19T08:09:09.067Z,6.50
2022-10-19T08:12:15.178Z,7.35
2022-10-19T08:15:17.845Z,5.67
2022-10-19T08:18:22.471Z,4.60
2022-10-19T08:21:47.191Z,6.10
2022-10-19T08:25:01.698Z,7.28
2022-10-19T08:28:04.140Z,6.82
2022-10-19T08:31:14.820Z,6.10
2022-10-19T08:34:17.393Z,4.90
2022-10-19T08:37:32.591Z,5.07
2022-10-19T08:40:44.680Z,5.68
2022-10-19T08:44:20.907Z,5.72
2022-10-19T08:47:45.335Z,4.67
2022-10-19T08:50:47.877Z,6.40
2022-10-19T08:53:53.699Z,5.97
2022-10-19T08:57:34.682Z,5.88
2022-10-19T09:01:09.017Z,6.53
2022-10-19T09:04:35.155Z,5.97
2022-10-19T09:07:45.091Z,5.17
2022-10-19T09:10:50.367Z,5.45
2022-10-19T09:14:05.210Z,6.30
2022-10-19T09:17:16.567Z,5.80
2022-10-19T09:20:22.020Z,4.90
2022-10-19T09:23:47.371Z,6.80
2022-10-19T09:26:53.599Z,5.22
2022-10-19T09:29:58.254Z,5.85
2022-10-19T09:33:02.196Z,7.25
2022-10-19T09:36:07.526Z,6.77
2022-10-19T09:39:12.791Z,6.67
2022-10-19T09:42:29.515Z,7.20
2022-10-19T09:45:33.253Z,5.13
2022-10-19T09:48:42.552Z,5.18
2022-10-19T09:51:50.389Z,5.17
2022-10-19T09:55:01.461Z,5.57
2022-10-19T09:58:04.885Z,4.80
2022-10-19T10:01:07.094Z,7.00
2022-10-19T10:04:15.582Z,4.63
2022-10-19T10:07:18.646Z,5.00
2022-10-19T10:10:28.078Z,4.70
2022-10-19T10:13:36.733Z,5.05
2022-10-19T10:16:38.964Z,4.70
2022-10-19T10:20:10.873Z,4.60
2022-10-19T10:23:23.229Z,3.40
2022-10-19T10:26:25.891Z,3.50
2022-10-19T10:29:30.574Z,4.03
2022-10-19T10:32:37.534Z,5.53
2022-10-19T10:35:39.815Z,3.65
2022-10-19T10:38:47.582Z,3.83
2022-10-19T10:41:49.781Z,4.77
2022-10-19T10:44:53.223Z,3.90
2022-10-19T10:47:55.418Z,4.40
2022-10-19T10:50:58.266Z,3.47
2022-10-19T10:54:09.225Z,4.03
2022-10-19T10:57:13.321Z,4.07
2022-10-19T11:00:20.841Z,3.92
2022-10-19T11:03:26.343Z,2.67
2022-10-19T11:06:28.475Z,4.25
2022-10-19T11:09:43.814Z,3.00
2022-10-19T11:12:49.900Z,3.00
2022-10-19T11:15:56.128Z,3.10
2022-10-19T11:19:08.602Z,2.90
2022-10-19T11:22:22.484Z,2.80
2022-10-19T11:25:45.256Z,3.37
2022-10-19T11:29:02.659Z,3.33
2022-10-19T11:32:13.085Z,3.35
2022-10-19T11:35:39.885Z,3.60
2022-10-19T11:38:53.962Z,4.95
2022-10-19T11:42:18.054Z,3.30
2022-10-19T11:45:32.347Z,3.60
2022-10-19T11:48:44.517Z,3.40
2022-10-19T11:52:09.861Z,3.28
2022-10-19T11:55:30.547Z,3.65
2022-10-19T11:58:34.984Z,4.30
2022-10-19T12:01:43.330Z,3.83
2022-10-19T12:04:54.865Z,4.57
2022-10-19T12:08:16.341Z,4.68
2022-10-19T12:11:46.670Z,4.43
2022-10-19T12:14:52.315Z,3.47
2022-10-19T12:17:57.504Z,3.50
2022-10-19T12:21:02.632Z,3.50
2022-10-19T12:24:10.803Z,3.20
2022-10-19T12:27:15.007Z,4.13
2022-10-19T12:30:23.637Z,2.90
2022-10-19T12:33:41.011Z,3.30
2022-10-19T12:37:20.349Z,3.00
2022-10-19T12:40:41.338Z,2.83
2022-10-19T12:44:01.839Z,3.13
2022-10-19T12:47:11.757Z,3.10
2022-10-19T12:50:14.025Z,2.90
2022-10-19T12:53:44.334Z,2.95
2022-10-19T12:56:48.949Z,3.85
2022-10-19T13:00:27.010Z,3.50
2022-10-19T13:03:37.283Z,3.30
2022-10-19T13:06:47.412Z,4.47
2022-10-19T13:09:49.842Z,3.47
2022-10-19T13:12:52.208Z,5.03
2022-10-19T13:15:54.397Z,3.92
2022-10-19T13:19:19.203Z,3.70
2022-10-19T13:22:26.720Z,3.70
2022-10-19T13:25:30.194Z,5.45
2022-10-19T13:28:32.313Z,4.00
2022-10-19T13:31:34.660Z,4.20
2022-10-19T13:34:36.816Z,4.33
2022-10-19T13:37:39.253Z,4.50
2022-10-19T13:40:47.320Z,5.15
2022-10-19T13:43:55.218Z,4.95
2022-10-19T13:47:02.769Z,3.75
2022-10-19T13:50:46.541Z,4.03
2022-10-19T13:54:12.535Z,4.47
2022-10-19T13:57:33.135Z,4.43
2022-10-19T14:00:53.743Z,5.18
2022-10-19T14:03:58.718Z,4.05
2022-10-19T14:07:17.774Z,4.93
2022-10-19T14:10:25.141Z,5.83
2022-10-19T14:13:35.164Z,5.93
2022-10-19T14:16:55.222Z,6.80
2022-10-19T14:20:04.106Z,4.50
2022-10-19T14:23:28.517Z,4.73
2022-10-19T14:26:31.231Z,6.57
2022-10-19T14:29:47.701Z,5.57
2022-10-19T14:32:50.027Z,4.55
2022-10-19T14:35:52.970Z,4.40
2022-10-19T14:38:56.719Z,4.97
2022-10-19T14:42:07.394Z,5.53
2022-10-19T14:45:19.290Z,5.85
2022-10-19T14:48:21.867Z,5.35
2022-10-19T14:51:35.782Z,5.63
2022-10-19T14:54:42.187Z,4.30
2022-10-19T14:57:49.114Z,5.73
2022-10-19T15:00:52.285Z,4.30
2022-10-19T15:03:54.822Z,5.68
2022-10-19T15:06:58.633Z,5.15
2022-10-19T15:10:03.867Z,5.40
2022-10-19T15:13:06.894Z,6.33
2022-10-19T15:16:33.467Z,4.30
2022-10-19T15:19:38.366Z,5.10
2022-10-19T15:22:40.740Z,4.75
2022-10-19T15:25:43.203Z,6.17
2022-10-19T15:28:45.681Z,5.80
2022-10-19T15:31:48.518Z,7.65
2022-10-19T15:34:59.853Z,4.72
2022-10-19T15:38:04.228Z,5.82
2022-10-19T15:41:06.578Z,4.40
2022-10-19T15:44:32.191Z,6.27
2022-10-19T15:47:34.543Z,4.90
2022-10-19T15:50:43.892Z,5.60
2022-10-19T15:53:46.019Z,5.93
2022-10-19T15:56:51.801Z,5.43
2022-10-19T15:59:55.830Z,5.43
2022-10-19T16:02:59.183Z,4.65
2022-10-19T16:06:03.099Z,6.13
2022-10-19T16:09:07.098Z,6.97
2022-10-19T16:12:11.740Z,7.27
2022-10-19T16:15:22.624Z,5.40
2022-10-19T16:18:25.036Z,13.43
2022-10-19T16:21:30.649Z,5.00
2022-10-19T16:24:32.843Z,6.00
2022-10-19T16:27:35.437Z,4.97
2022-10-19T16:30:43.865Z,5.83
2022-10-19T16:33:46.361Z,5.00
2022-10-19T16:36:48.664Z,5.47
2022-10-19T16:39:50.814Z,7.82
2022-10-19T16:42:52.981Z,5.33
2022-10-19T16:45:55.332Z,4.80
2022-10-19T16:48:57.818Z,5.00
2022-10-19T16:52:01.666Z,6.43
2022-10-19T16:55:04.074Z,6.60
2022-10-19T16:58:07.308Z,7.37
2022-10-19T17:01:16.142Z,5.20
2022-10-19T17:04:18.779Z,6.30
2022-10-19T17:07:23.579Z,4.80
2022-10-19T17:10:28.626Z,6.30
2022-10-19T17:13:31.793Z,6.60
2022-10-19T17:16:36.238Z,5.10
2022-10-19T17:19:39.282Z,6.57
2022-10-19T17:22:41.752Z,7.82
2022-10-19T17:25:48.635Z,6.40
2022-10-19T17:28:51.281Z,5.93
2022-10-19T17:31:54.713Z,7.83
2022-10-19T17:35:00.865Z,7.10
2022-10-19T17:38:03.788Z,6.00
2022-10-19T17:41:25.469Z,6.47
2022-10-19T17:44:29.241Z,6.93
2022-10-19T17:47:31.969Z,7.83
2022-10-19T17:50:34.838Z,6.43
2022-10-19T17:53:37.566Z,9.32
2022-10-19T17:56:40.643Z,6.68
2022-10-19T17:59:52.441Z,5.63
2022-10-19T18:02:55.586Z,5.87
2022-10-19T18:06:16.590Z,7.10
2022-10-19T18:09:18.810Z,8.20
2022-10-19T18:12:21.191Z,8.55
2022-10-19T18:15:27.307Z,9.30
2022-10-19T18:18:33.069Z,7.13
2022-10-19T18:21:39.600Z,10.57
2022-10-19T18:24:42.356Z,8.77
2022-10-19T18:27:45.598Z,7.63
2022-10-19T18:30:51.109Z,16.63
2022-10-19T18:34:05.193Z,8.60
2022-10-19T18:37:07.964Z,8.45
2022-10-19T18:40:12.392Z,12.75
2022-10-19T18:43:15.172Z,8.75
2022-10-19T18:46:19.454Z,14.17
2022-10-19T18:49:22.523Z,7.73
2022-10-19T18:52:24.961Z,7.80
2022-10-19T18:55:27.590Z,6.50
2022-10-19T18:58:31.507Z,6.28
2022-10-19T19:01:34.266Z,6.00
2022-10-19T19:04:37.756Z,6.07
2022-10-19T19:07:40.506Z,4.53
2022-10-19T19:10:47.738Z,6.55
2022-10-19T19:14:14.695Z,6.82
2022-10-19T19:17:17.462Z,7.20
2022-10-19T19:20:20.289Z,8.33
2022-10-19T19:23:22.965Z,8.10
2022-10-19T19:26:28.820Z,7.13
2022-10-19T19:29:31.519Z,7.32
2022-10-19T19:32:35.423Z,7.20
2022-10-19T19:35:45.681Z,10.53
2022-10-19T19:38:50.962Z,7.97
2022-10-19T19:41:54.500Z,8.65
2022-10-19T19:44:57.505Z,7.20
2022-10-19T19:48:00.219Z,5.43
2022-10-19T19:51:02.566Z,7.20
2022-10-19T19:54:05.990Z,7.20
2022-10-19T19:57:08.720Z,11.77
2022-10-19T20:00:12.208Z,8.00
2022-10-19T20:03:48.286Z,6.70
2022-10-19T20:06:50.990Z,13.50
2022-10-19T20:09:54.437Z,7.07
2022-10-19T20:13:10.554Z,9.20
2022-10-19T20:16:22.697Z,8.48
2022-10-19T20:19:27.946Z,8.33
2022-10-19T20:22:31.729Z,7.87
2022-10-19T20:25:38.000Z,9.43
2022-10-19T20:28:41.829Z,10.82
2022-10-19T20:31:45.513Z,9.77
2022-10-19T20:35:02.075Z,9.77
2022-10-19T20:38:04.491Z,9.00
2022-10-19T20:41:08.491Z,9.52
2022-10-19T20:44:11.142Z,11.02
2022-10-19T20:47:13.782Z,10.48
2022-10-19T20:50:19.236Z,9.47
2022-10-19T20:53:24.044Z,9.60
2022-10-19T20:56:28.637Z,13.32
2022-10-19T20:59:32.910Z,10.68
2022-10-19T21:02:35.367Z,8.68
2022-10-19T21:05:38.581Z,9.37
2022-10-19T21:08:40.839Z,9.77
2022-10-19T21:11:44.007Z,9.18
2022-10-19T21:14:46.136Z,9.20
2022-10-19T21:17:48.221Z,8.15
2022-10-19T21:20:50.531Z,8.50
2022-10-19T21:23:57.667Z,9.17
2022-10-19T21:27:05.606Z,7.38
2022-10-19T21:30:08.291Z,7.55
2022-10-19T21:33:10.466Z,8.75
2022-10-19T21:36:14.227Z,7.83
2022-10-19T21:39:16.929Z,7.93
2022-10-19T21:42:19.084Z,10.10
2022-10-19T21:45:36.532Z,8.27
2022-10-19T21:48:39.430Z,9.20
2022-10-19T21:51:50.192Z,7.70
2022-10-19T21:54:53.550Z,8.53
2022-10-19T21:57:56.468Z,11.30
2022-10-19T22:01:08.249Z,8.10
2022-10-19T22:04:15.699Z,8.60
2022-10-19T22:07:17.837Z,9.03
2022-10-19T22:10:19.968Z,13.30
2022-10-19T22:13:22.118Z,17.08
2022-10-19T22:16:25.628Z,21.55
2022-10-19T22:19:27.796Z,21.08
2022-10-19T22:22:29.972Z,20.00
2022-10-19T22:25:33.333Z,18.10
2022-10-19T22:28:35.477Z,19.35
2022-10-19T22:31:38.138Z,18.85
2022-10-19T22:34:40.328Z,16.63
2022-10-19T22:37:42.446Z,15.63
2022-10-19T22:41:01.360Z,15.47
2022-10-19T22:44:03.708Z,15.20
2022-10-19T22:47:05.914Z,12.63
2022-10-19T22:50:11.816Z,11.25
2022-10-19T22:53:14.325Z,10.17
2022-10-19T22:56:16.545Z,11.40
2022-10-19T22:59:18.770Z,10.45
2022-10-19T23:02:21.002Z,9.50
2022-10-19T23:05:23.251Z,9.18
2022-10-19T23:08:26.357Z,8.23
2022-10-19T23:11:28.760Z,9.73
2022-10-19T23:14:31.229Z,9.35
2022-10-19T23:17:33.683Z,10.73
2022-10-19T23:20:36.375Z,10.30
2022-10-19T23:23:39.398Z,9.03
2022-10-19T23:26:41.633Z,9.03
2022-10-19T23:29:43.867Z,9.68
2022-10-19T23:32:46.085Z,10.18
2022-10-19T23:35:48.249Z,8.70
2022-10-19T23:38:51.814Z,8.87
2022-10-19T23:41:53.950Z,10.60
2022-10-19T23:44:56.042Z,7.72
2022-10-19T23:47:58.224Z,10.43
2022-10-19T23:51:04.063Z,9.93
2022-10-19T23:54:06.177Z,8.90
2022-10-19T23:57:08.316Z,7.63
